createdAt,value
2022-11-02T12:10:38.651Z,101472.41
2022-11-02T12:13:18.623Z,101467.88
2022-11-02T12:16:24.222Z,101458.59
2022-11-02T12:19:21.206Z,101458.34
2022-11-02T12:22:01.167Z,101450.38
2022-11-02T12:24:44.790Z,101452.94
2022-11-02T12:27:31.855Z,101455.47
2022-11-02T12:30:22.082Z,101451.34
2022-11-02T12:32:56.160Z,101451.38
2022-11-02T12:36:02.275Z,101444.03
2022-11-02T12:38:56.476Z,101442.16
2022-11-02T12:41:38.817Z,101442.91
2022-11-02T12:44:50.576Z,101436.97
2022-11-02T12:47:30.437Z,101432.91
2022-11-02T12:50:28.046Z,101434.19
2022-11-02T12:53:47.425Z,101430.97
2022-11-02T12:56:47.867Z,101408.63
2022-11-02T12:59:24.115Z,101400.56
2022-11-02T13:01:57.292Z,101397.78
2022-11-02T13:04:39.899Z,101401.81
2022-11-02T13:07:20.845Z,101396.84
2022-11-02T13:09:55.466Z,101395.03
2022-11-02T13:12:26.351Z,101398.91
2022-11-02T13:14:59.631Z,101399.56
2022-11-02T13:17:36.140Z,101404.25
2022-11-02T13:20:15.061Z,101415.63
2022-11-02T13:22:48.111Z,101410.25
2022-11-02T13:25:20.651Z,101418.22
2022-11-02T13:27:54.581Z,101424.66
2022-11-02T13:30:23.156Z,101414.19
2022-11-02T13:32:59.542Z,101417.56
2022-11-02T13:35:36.431Z,101414.31
2022-11-02T13:38:17.932Z,101421.38
2022-11-02T13:40:58.602Z,101420.84
2022-11-02T13:43:48.621Z,101419.25
2022-11-02T13:46:41.634Z,101427.13
2022-11-02T13:49:22.262Z,101424.34
2022-11-02T13:51:54.881Z,101420.34
2022-11-02T13:54:30.732Z,101426.91
2022-11-02T13:56:59.632Z,101429.28
2022-11-02T13:59:42.217Z,101435.34
2022-11-02T14:02:18.059Z,101431.53
2022-11-02T14:04:48.970Z,101437.72
2022-11-02T14:07:29.323Z,101435.81
2022-11-02T14:10:19.312Z,101433.84
2022-11-02T14:12:49.730Z,101418.75
2022-11-02T14:15:17.792Z,101425.56
2022-11-02T14:17:55.343Z,101416.34
2022-11-02T14:20:40.990Z,101420.72
2022-11-02T14:23:14.253Z,101416.06
2022-11-02T14:25:45.494Z,101403.06
2022-11-02T14:28:32.031Z,101401.81
2022-11-02T14:31:27.065Z,101411.84
2022-11-02T14:34:18.352Z,101412.63
2022-11-02T14:36:55.492Z,101415.78
2022-11-02T14:39:42.363Z,101410.84
2022-11-02T14:42:43.852Z,101410.03
2022-11-02T14:45:26.744Z,101414.16
2022-11-02T14:48:02.259Z,101412.84
2022-11-02T14:50:31.155Z,101403.97
2022-11-02T14:53:09.302Z,101394.28
2022-11-02T14:55:39.620Z,101389.19
2022-11-02T14:58:18.747Z,101402.28
2022-11-02T15:00:50.027Z,101406.53
2022-11-02T15:03:24.813Z,101402.25
2022-11-02T15:06:03.264Z,101397.88
2022-11-02T15:08:36.273Z,101392.03
2022-11-02T15:11:41.695Z,101393.72
2022-11-02T15:14:39.383Z,101381.88
2022-11-02T15:17:13.292Z,101383.78
2022-11-02T15:20:11.850Z,101391.09
2022-11-02T15:22:43.322Z,101385.16
2022-11-02T15:25:34.202Z,101389.44
2022-11-02T15:28:11.631Z,101381.03
2022-11-02T15:30:49.961Z,101383.22
2022-11-02T15:33:36.519Z,101387.03
2022-11-02T15:36:08.993Z,101391.47
2022-11-02T16:43:21.807Z,101411.53
2022-11-02T16:45:51.058Z,101416.47
2022-11-02T16:48:25.713Z,101422.56
2022-11-02T16:51:14.760Z,101413.59
2022-11-02T16:53:44.959Z,101415.09
2022-11-02T16:56:28.157Z,101423.41
2022-11-02T16:59:06.283Z,101424.97
2022-11-02T17:01:41.236Z,101424.00
2022-11-02T17:04:24.366Z,101422.84
2022-11-02T17:06:59.839Z,101425.56
2022-11-02T17:09:31.329Z,101428.78
2022-11-02T17:12:05.197Z,101430.41
2022-11-02T17:14:33.478Z,101419.91
2022-11-02T17:17:31.300Z,101423.75
2022-11-02T17:20:09.856Z,101429.16
2022-11-02T17:22:52.185Z,101428.25
2022-11-02T17:25:26.634Z,101434.84
2022-11-02T17:27:58.772Z,101434.84
2022-11-02T17:30:35.486Z,101438.13
2022-11-02T17:33:22.895Z,101436.22
2022-11-02T17:35:54.155Z,101437.50
2022-11-02T17:38:25.997Z,101444.00
2022-11-02T17:40:54.640Z,101439.72
2022-11-02T17:43:23.840Z,101442.63
2022-11-02T17:45:59.846Z,101441.75
2022-11-02T17:48:31.449Z,101450.44
2022-11-02T17:51:02.410Z,101448.28
2022-11-02T17:53:30.420Z,101449.88
2022-11-02T17:55:58.238Z,101461.34
2022-11-02T17:58:26.332Z,101457.84
2022-11-02T18:00:55.632Z,101469.88
2022-11-02T18:03:29.775Z,101473.59
2022-11-02T18:06:00.253Z,101474.69
2022-11-02T18:08:29.010Z,101486.59
2022-11-02T18:10:56.764Z,101491.78
2022-11-02T18:13:25.213Z,101478.97
2022-11-02T18:15:52.864Z,101480.41
2022-11-02T18:18:21.020Z,101473.47
2022-11-02T18:20:48.786Z,101483.69
2022-11-02T18:23:19.465Z,101469.78
2022-11-02T18:25:47.197Z,101479.03
2022-11-02T18:28:15.407Z,101480.97
2022-11-02T18:30:46.726Z,101485.69
2022-11-02T18:33:14.761Z,101484.75
2022-11-02T18:35:42.956Z,101483.81
2022-11-02T18:38:11.786Z,101477.78
2022-11-02T18:40:41.131Z,101480.56
2022-11-02T18:43:10.809Z,101482.81
2022-11-02T18:45:38.485Z,101479.56
2022-11-02T18:48:07.166Z,101466.28
2022-11-02T18:50:35.024Z,101461.09
2022-11-02T18:53:03.063Z,101463.25
2022-11-02T18:55:30.690Z,101469.56
2022-11-02T18:57:58.752Z,101470.78
2022-11-02T19:00:26.551Z,101470.19
2022-11-02T19:02:56.400Z,101470.31
2022-11-02T19:05:42.773Z,101468.31
2022-11-02T19:08:29.436Z,101465.38
2022-11-02T19:10:57.638Z,101466.94
2022-11-02T19:13:26.056Z,101472.38
2022-11-02T19:15:54.235Z,101454.81
2022-11-02T19:18:22.386Z,101456.16
2022-11-02T19:20:50.043Z,101456.28
2022-11-02T19:23:18.705Z,101451.13
2022-11-02T19:25:51.979Z,101460.88
2022-11-02T19:28:20.159Z,101475.97
2022-11-02T19:30:47.918Z,101482.47
2022-11-02T19:33:16.453Z,101479.00
2022-11-02T19:35:53.968Z,101482.31
2022-11-02T19:38:22.270Z,101480.63
2022-11-02T19:41:06.345Z,101486.13
2022-11-02T19:43:34.354Z,101476.59
2022-11-02T19:46:04.014Z,101477.69
2022-11-02T19:48:33.133Z,101482.00
2022-11-02T19:51:06.706Z,101476.75
2022-11-02T19:53:37.857Z,101478.97
2022-11-02T19:56:10.799Z,101479.00
2022-11-02T19:58:44.716Z,101465.13
2022-11-02T20:01:19.438Z,101474.38
2022-11-02T20:03:48.634Z,101465.81
2022-11-02T20:06:23.148Z,101472.56
2022-11-02T20:08:57.059Z,101471.41
2022-11-02T20:11:27.670Z,101474.06
2022-11-02T20:14:02.906Z,101473.72
2022-11-02T20:16:31.475Z,101472.69
2022-11-02T20:18:59.821Z,101478.19
2022-11-02T20:21:34.469Z,101473.91
2022-11-02T20:24:06.225Z,101482.63
2022-11-02T20:26:36.836Z,101482.69
2022-11-02T20:29:10.819Z,101479.66
2022-11-02T20:31:43.454Z,101479.00
2022-11-02T20:34:13.025Z,101482.94
2022-11-02T20:36:42.670Z,101488.28
2022-11-02T20:39:12.659Z,101488.50
2022-11-02T20:41:44.984Z,101480.19
2022-11-02T20:44:14.821Z,101483.59
2022-11-02T20:46:53.089Z,101490.97
2022-11-02T20:49:51.773Z,101483.16
2022-11-02T20:52:14.500Z,101486.13
2022-11-02T20:54:43.185Z,101480.75
2022-11-02T20:57:13.062Z,101479.66
2022-11-02T20:59:42.801Z,101483.13
2022-11-02T21:02:14.473Z,101478.00
2022-11-02T21:04:44.100Z,101482.59
2022-11-02T21:07:13.433Z,101482.81
2022-11-02T21:09:42.963Z,101479.31
2022-11-02T21:12:34.784Z,101494.53
2022-11-02T21:15:05.192Z,101483.16
2022-11-02T21:17:36.229Z,101488.47
2022-11-02T21:20:32.639Z,101484.06
2022-11-02T21:23:01.685Z,101488.91
2022-11-02T21:25:34.444Z,101486.97
2022-11-02T21:28:04.254Z,101483.59
2022-11-02T21:30:33.871Z,101482.69
2022-11-02T21:33:02.669Z,101476.50
2022-11-02T21:35:31.435Z,101474.16
2022-11-02T21:38:02.469Z,101472.81
2022-11-02T21:40:34.945Z,101481.38
2022-11-02T21:43:04.082Z,101490.69
2022-11-02T21:45:37.658Z,101486.59
2022-11-02T21:48:06.434Z,101487.19
2022-11-02T21:50:34.747Z,101484.25
2022-11-02T21:53:02.759Z,101487.00
2022-11-02T21:55:30.921Z,101477.78
2022-11-02T21:57:58.782Z,101473.56
2022-11-02T22:00:47.144Z,101484.16
2022-11-02T22:03:15.159Z,101489.28
2022-11-02T22:05:56.440Z,101495.78
2022-11-02T22:08:39.638Z,101491.47
2022-11-02T22:11:12.589Z,101492.38
2022-11-02T22:13:42.345Z,101491.22
2022-11-02T22:16:15.103Z,101489.78
2022-11-02T22:18:45.388Z,101492.38
2022-11-02T22:21:15.507Z,101487.25
2022-11-02T22:23:45.599Z,101485.66
2022-11-02T22:26:23.060Z,101490.19
2022-11-02T22:28:52.186Z,101486.28
2022-11-02T22:31:23.708Z,101484.38
2022-11-02T22:33:54.869Z,101482.41
2022-11-02T22:36:25.924Z,101474.81
2022-11-02T22:38:56.180Z,101472.66
2022-11-02T22:41:36.630Z,101475.72
2022-11-02T22:44:19.510Z,101472.13
2022-11-02T22:46:50.564Z,101474.50
2022-11-02T22:49:20.433Z,101470.19
2022-11-02T22:51:50.851Z,101470.31
2022-11-02T22:54:20.480Z,101460.31
2022-11-02T22:56:49.283Z,101457.03
2022-11-02T22:59:17.155Z,101453.31
2022-11-02T23:01:45.731Z,101451.09
2022-11-02T23:04:14.076Z,101444.00
2022-11-02T23:06:42.391Z,101440.94
2022-11-02T23:09:11.675Z,101446.63
2022-11-02T23:11:39.836Z,101452.94
2022-11-02T23:14:17.919Z,101460.31
2022-11-02T23:16:47.693Z,101457.34
2022-11-02T23:19:30.900Z,101450.00
2022-11-02T23:22:22.236Z,101457.38
2022-11-02T23:25:14.567Z,101460.84
2022-11-02T23:28:02.582Z,101458.94
2022-11-02T23:30:51.790Z,101462.91
2022-11-02T23:33:21.561Z,101468.81
2022-11-02T23:36:08.934Z,101458.94
2022-11-02T23:38:56.211Z,101458.94
2022-11-02T23:41:25.661Z,101459.72
2022-11-02T23:44:12.035Z,101452.53
2022-11-02T23:46:43.154Z,101444.66
2022-11-02T23:49:13.244Z,101444.25
2022-11-02T23:51:59.980Z,101449.63
2022-11-02T23:54:46.803Z,101460.09
2022-11-02T23:57:15.162Z,101446.69
2022-11-02T23:59:42.990Z,101446.91
